Terminal Aerodrome Forecast
Issued by NWS

Home | Current Version | Previous Version | Text Only | Print | Product List | Glossary On
Versions: 1 2 3 4 5 6 7 8 9 10 11 12 13 14
786
FTUS45 KABQ 231132
TAFLVS
TAF
KLVS 231132Z 2312/2412 36006KT P6SM SCT050
     FM231700 06010KT P6SM VCSH BKN070
      TEMPO 2320/2324 VRB20G35KT 6SM -TSRA OVC050CB
     FM240300 02007KT P6SM BKN070=

USA.gov is the U.S. government's official web portal to all federal, state and local government web resources and services.